Rosharon, Texas
Current Conditions -  °F | °C
As of 3:35 AM on Thursday 27 Nov 2014 (Local Time) from KAXH Reporting Station
Clear Clear  
Wind Chill: 44°   Ceiling: Unl
Heat Index: 46°   Visibility: 10mi
Dew Point: 42°   Wind: 5mph
Humidity: 84%   Direction: 350°N
Pressure: 30.38"   Gusts: NA
Location:  29.35°N, 95.46°W
Report Text: KAXH 270935Z AUTO 35004KT 10SM CLR 08/06 A3038 RMK AO2 T00800055
Loading
Personal Weather Stations






























Interactive Weather Map New forecast layout! Learn more

10-Day Weather Forecast

Advertisements
Track Severe Weather on mobile